sensor_id;sensor_type;location;lat;lon;timestamp;P1;durP1;ratioP1;P2;durP2;ratioP2
7605;SDS011;3844;53.360;9.738;2023-06-22T00:00:10;9.13;;;4.47;;
7605;SDS011;3844;53.360;9.738;2023-06-22T00:02:12;7.38;;;4.20;;
7605;SDS011;3844;53.360;9.738;2023-06-22T00:04:12;8.13;;;4.40;;
7605;SDS011;3844;53.360;9.738;2023-06-22T00:06:13;7.43;;;4.40;;
7605;SDS011;3844;53.360;9.738;2023-06-22T00:08:14;6.45;;;3.88;;
7605;SDS011;3844;53.360;9.738;2023-06-22T00:10:15;6.75;;;4.10;;
7605;SDS011;3844;53.360;9.738;2023-06-22T00:12:16;6.90;;;4.43;;
7605;SDS011;3844;53.360;9.738;2023-06-22T00:14:17;7.97;;;4.00;;
7605;SDS011;3844;53.360;9.738;2023-06-22T00:16:17;7.55;;;4.53;;
7605;SDS011;3844;53.360;9.738;2023-06-22T00:18:18;7.28;;;4.47;;
7605;SDS011;3844;53.360;9.738;2023-06-22T00:20:20;6.28;;;3.90;;
7605;SDS011;3844;53.360;9.738;2023-06-22T00:22:21;8.70;;;4.88;;
7605;SDS011;3844;53.360;9.738;2023-06-22T00:24:28;7.78;;;4.57;;
7605;SDS011;3844;53.360;9.738;2023-06-22T00:26:29;6.57;;;4.32;;
7605;SDS011;3844;53.360;9.738;2023-06-22T00:28:30;7.05;;;4.60;;
7605;SDS011;3844;53.360;9.738;2023-06-22T00:30:31;8.02;;;4.78;;
7605;SDS011;3844;53.360;9.738;2023-06-22T00:32:32;7.43;;;4.18;;
7605;SDS011;3844;53.360;9.738;2023-06-22T00:34:32;7.68;;;4.80;;
7605;SDS011;3844;53.360;9.738;2023-06-22T00:36:33;8.15;;;4.72;;
7605;SDS011;3844;53.360;9.738;2023-06-22T00:38:34;7.40;;;4.40;;
7605;SDS011;3844;53.360;9.738;2023-06-22T00:40:40;7.78;;;4.00;;
7605;SDS011;3844;53.360;9.738;2023-06-22T00:42:41;9.13;;;4.55;;
7605;SDS011;3844;53.360;9.738;2023-06-22T00:44:41;6.30;;;4.35;;
7605;SDS011;3844;53.360;9.738;2023-06-22T00:46:42;7.63;;;4.35;;
7605;SDS011;3844;53.360;9.738;2023-06-22T00:48:43;6.57;;;4.28;;
7605;SDS011;3844;53.360;9.738;2023-06-22T00:50:44;6.35;;;4.57;;
7605;SDS011;3844;53.360;9.738;2023-06-22T00:52:45;7.30;;;4.47;;
7605;SDS011;3844;53.360;9.738;2023-06-22T00:54:48;6.85;;;4.35;;
7605;SDS011;3844;53.360;9.738;2023-06-22T00:56:53;6.75;;;4.07;;
7605;SDS011;3844;53.360;9.738;2023-06-22T00:58:56;7.82;;;4.47;;
7605;SDS011;3844;53.360;9.738;2023-06-22T01:00:59;6.70;;;4.20;;
7605;SDS011;3844;53.360;9.738;2023-06-22T01:03:01;6.78;;;4.00;;
7605;SDS011;3844;53.360;9.738;2023-06-22T01:05:02;7.13;;;4.25;;
7605;SDS011;3844;53.360;9.738;2023-06-22T01:09:32;7.72;;;4.40;;
7605;SDS011;3844;53.360;9.738;2023-06-22T01:11:40;6.70;;;4.40;;
7605;SDS011;3844;53.360;9.738;2023-06-22T01:13:59;7.10;;;4.78;;
7605;SDS011;3844;53.360;9.738;2023-06-22T01:18:19;6.22;;;3.83;;
7605;SDS011;3844;53.360;9.738;2023-06-22T01:20:25;7.72;;;4.45;;
7605;SDS011;3844;53.360;9.738;2023-06-22T01:22:30;6.00;;;4.00;;
7605;SDS011;3844;53.360;9.738;2023-06-22T01:29:05;6.95;;;4.10;;
7605;SDS011;3844;53.360;9.738;2023-06-22T01:31:08;6.00;;;4.07;;
7605;SDS011;3844;53.360;9.738;2023-06-22T01:33:11;6.32;;;3.90;;
7605;SDS011;3844;53.360;9.738;2023-06-22T01:35:14;7.20;;;3.95;;
7605;SDS011;3844;53.360;9.738;2023-06-22T01:37:16;6.63;;;4.43;;
7605;SDS011;3844;53.360;9.738;2023-06-22T01:39:17;7.63;;;4.38;;
7605;SDS011;3844;53.360;9.738;2023-06-22T01:41:19;7.00;;;4.20;;
7605;SDS011;3844;53.360;9.738;2023-06-22T01:43:21;7.03;;;4.00;;
7605;SDS011;3844;53.360;9.738;2023-06-22T01:45:24;7.45;;;4.40;;
7605;SDS011;3844;53.360;9.738;2023-06-22T01:47:25;6.82;;;4.00;;
7605;SDS011;3844;53.360;9.738;2023-06-22T01:49:27;6.90;;;3.95;;
7605;SDS011;3844;53.360;9.738;2023-06-22T01:51:29;7.38;;;4.13;;
7605;SDS011;3844;53.360;9.738;2023-06-22T01:53:30;6.25;;;4.05;;
7605;SDS011;3844;53.360;9.738;2023-06-22T01:55:31;6.47;;;3.78;;
7605;SDS011;3844;53.360;9.738;2023-06-22T01:57:32;8.02;;;3.85;;
7605;SDS011;3844;53.360;9.738;2023-06-22T01:59:34;8.13;;;4.20;;
7605;SDS011;3844;53.360;9.738;2023-06-22T02:04:08;6.72;;;3.88;;
7605;SDS011;3844;53.360;9.738;2023-06-22T02:06:23;6.40;;;3.65;;
7605;SDS011;3844;53.360;9.738;2023-06-22T02:08:46;7.38;;;3.85;;
7605;SDS011;3844;53.360;9.738;2023-06-22T02:10:51;6.45;;;3.90;;
7605;SDS011;3844;53.360;9.738;2023-06-22T02:12:54;6.25;;;3.70;;
7605;SDS011;3844;53.360;9.738;2023-06-22T02:14:55;6.07;;;3.92;;
7605;SDS011;3844;53.360;9.738;2023-06-22T02:16:57;6.95;;;3.50;;
7605;SDS011;3844;53.360;9.738;2023-06-22T02:19:00;6.25;;;4.03;;
7605;SDS011;3844;53.360;9.738;2023-06-22T02:21:06;5.72;;;3.60;;
7605;SDS011;3844;53.360;9.738;2023-06-22T02:23:07;7.88;;;4.30;;
7605;SDS011;3844;53.360;9.738;2023-06-22T02:25:08;7.03;;;4.28;;
7605;SDS011;3844;53.360;9.738;2023-06-22T02:27:09;7.40;;;3.83;;
7605;SDS011;3844;53.360;9.738;2023-06-22T02:29:10;7.70;;;4.18;;
7605;SDS011;3844;53.360;9.738;2023-06-22T02:31:11;7.35;;;4.10;;
7605;SDS011;3844;53.360;9.738;2023-06-22T02:33:12;6.88;;;4.38;;
7605;SDS011;3844;53.360;9.738;2023-06-22T02:35:12;6.47;;;4.00;;
7605;SDS011;3844;53.360;9.738;2023-06-22T02:37:13;7.10;;;3.97;;
7605;SDS011;3844;53.360;9.738;2023-06-22T02:39:14;6.45;;;4.00;;
7605;SDS011;3844;53.360;9.738;2023-06-22T02:41:15;7.07;;;4.03;;
7605;SDS011;3844;53.360;9.738;2023-06-22T02:43:19;8.45;;;4.10;;
7605;SDS011;3844;53.360;9.738;2023-06-22T02:45:19;6.00;;;3.90;;
7605;SDS011;3844;53.360;9.738;2023-06-22T02:47:20;6.65;;;3.92;;
7605;SDS011;3844;53.360;9.738;2023-06-22T02:49:21;6.65;;;4.15;;
7605;SDS011;3844;53.360;9.738;2023-06-22T02:51:23;6.68;;;4.05;;
7605;SDS011;3844;53.360;9.738;2023-06-22T02:53:23;6.35;;;4.13;;
7605;SDS011;3844;53.360;9.738;2023-06-22T02:55:24;7.20;;;4.18;;
7605;SDS011;3844;53.360;9.738;2023-06-22T02:57:25;7.15;;;4.03;;
7605;SDS011;3844;53.360;9.738;2023-06-22T02:59:25;5.45;;;3.50;;
7605;SDS011;3844;53.360;9.738;2023-06-22T03:01:29;6.53;;;3.72;;
7605;SDS011;3844;53.360;9.738;2023-06-22T03:03:39;5.63;;;3.65;;
7605;SDS011;3844;53.360;9.738;2023-06-22T03:05:40;6.18;;;3.55;;
7605;SDS011;3844;53.360;9.738;2023-06-22T03:07:41;6.18;;;3.72;;
7605;SDS011;3844;53.360;9.738;2023-06-22T03:09:43;6.03;;;3.70;;
7605;SDS011;3844;53.360;9.738;2023-06-22T03:11:43;5.65;;;3.53;;
7605;SDS011;3844;53.360;9.738;2023-06-22T03:13:44;6.93;;;3.78;;
7605;SDS011;3844;53.360;9.738;2023-06-22T03:15:46;7.03;;;4.13;;
7605;SDS011;3844;53.360;9.738;2023-06-22T03:17:47;6.28;;;3.80;;
7605;SDS011;3844;53.360;9.738;2023-06-22T03:19:48;5.82;;;3.58;;
7605;SDS011;3844;53.360;9.738;2023-06-22T03:21:49;5.90;;;3.58;;
7605;SDS011;3844;53.360;9.738;2023-06-22T03:23:50;5.43;;;3.50;;
7605;SDS011;3844;53.360;9.738;2023-06-22T03:25:51;6.20;;;3.60;;
7605;SDS011;3844;53.360;9.738;2023-06-22T03:27:51;7.82;;;3.88;;
7605;SDS011;3844;53.360;9.738;2023-06-22T03:29:52;7.15;;;3.88;;
7605;SDS011;3844;53.360;9.738;2023-06-22T03:31:53;6.65;;;3.85;;
7605;SDS011;3844;53.360;9.738;2023-06-22T03:33:54;5.97;;;3.25;;
7605;SDS011;3844;53.360;9.738;2023-06-22T03:35:55;6.45;;;3.20;;
7605;SDS011;3844;53.360;9.738;2023-06-22T03:37:55;8.32;;;3.65;;
7605;SDS011;3844;53.360;9.738;2023-06-22T03:39:56;6.30;;;3.80;;
7605;SDS011;3844;53.360;9.738;2023-06-22T03:41:57;6.10;;;3.70;;
7605;SDS011;3844;53.360;9.738;2023-06-22T03:43:58;7.10;;;3.95;;
7605;SDS011;3844;53.360;9.738;2023-06-22T03:45:58;6.22;;;3.80;;
7605;SDS011;3844;53.360;9.738;2023-06-22T03:48:00;6.60;;;3.88;;
7605;SDS011;3844;53.360;9.738;2023-06-22T03:50:01;5.82;;;3.50;;
7605;SDS011;3844;53.360;9.738;2023-06-22T03:52:03;5.95;;;3.58;;
7605;SDS011;3844;53.360;9.738;2023-06-22T03:54:04;7.15;;;3.83;;
7605;SDS011;3844;53.360;9.738;2023-06-22T03:56:05;5.80;;;3.80;;
7605;SDS011;3844;53.360;9.738;2023-06-22T03:58:06;6.10;;;3.58;;
7605;SDS011;3844;53.360;9.738;2023-06-22T04:00:06;5.90;;;3.72;;
7605;SDS011;3844;53.360;9.738;2023-06-22T04:02:08;6.40;;;3.95;;
7605;SDS011;3844;53.360;9.738;2023-06-22T04:04:09;6.15;;;3.60;;
7605;SDS011;3844;53.360;9.738;2023-06-22T04:06:10;6.88;;;3.60;;
7605;SDS011;3844;53.360;9.738;2023-06-22T04:08:12;7.05;;;3.60;;
7605;SDS011;3844;53.360;9.738;2023-06-22T04:10:13;6.75;;;3.90;;
7605;SDS011;3844;53.360;9.738;2023-06-22T04:12:14;6.25;;;3.63;;
7605;SDS011;3844;53.360;9.738;2023-06-22T04:14:15;6.70;;;3.80;;
7605;SDS011;3844;53.360;9.738;2023-06-22T04:16:16;5.70;;;3.65;;
7605;SDS011;3844;53.360;9.738;2023-06-22T04:18:16;5.70;;;3.10;;
7605;SDS011;3844;53.360;9.738;2023-06-22T04:20:17;7.55;;;3.40;;
7605;SDS011;3844;53.360;9.738;2023-06-22T04:22:18;5.90;;;3.60;;
7605;SDS011;3844;53.360;9.738;2023-06-22T04:24:18;5.82;;;3.65;;
7605;SDS011;3844;53.360;9.738;2023-06-22T04:26:19;7.63;;;3.60;;
7605;SDS011;3844;53.360;9.738;2023-06-22T04:28:20;4.90;;;3.13;;
7605;SDS011;3844;53.360;9.738;2023-06-22T04:30:21;5.43;;;3.45;;
7605;SDS011;3844;53.360;9.738;2023-06-22T04:32:22;5.53;;;3.60;;
7605;SDS011;3844;53.360;9.738;2023-06-22T04:34:23;5.40;;;3.50;;
7605;SDS011;3844;53.360;9.738;2023-06-22T04:36:26;6.20;;;3.53;;
7605;SDS011;3844;53.360;9.738;2023-06-22T04:38:30;5.30;;;3.45;;
7605;SDS011;3844;53.360;9.738;2023-06-22T04:40:34;5.60;;;3.60;;
7605;SDS011;3844;53.360;9.738;2023-06-22T04:42:35;5.03;;;3.25;;
7605;SDS011;3844;53.360;9.738;2023-06-22T04:44:37;6.00;;;3.67;;
7605;SDS011;3844;53.360;9.738;2023-06-22T04:46:40;6.82;;;3.72;;
7605;SDS011;3844;53.360;9.738;2023-06-22T04:48:40;5.97;;;3.33;;
7605;SDS011;3844;53.360;9.738;2023-06-22T04:50:41;5.70;;;3.13;;
7605;SDS011;3844;53.360;9.738;2023-06-22T04:52:42;6.03;;;3.45;;
7605;SDS011;3844;53.360;9.738;2023-06-22T04:54:43;5.70;;;3.60;;
7605;SDS011;3844;53.360;9.738;2023-06-22T04:56:47;5.35;;;3.38;;
7605;SDS011;3844;53.360;9.738;2023-06-22T04:58:53;5.82;;;3.17;;
7605;SDS011;3844;53.360;9.738;2023-06-22T05:00:56;5.45;;;3.30;;
7605;SDS011;3844;53.360;9.738;2023-06-22T05:02:57;6.78;;;3.20;;
7605;SDS011;3844;53.360;9.738;2023-06-22T05:04:58;5.45;;;3.70;;
7605;SDS011;3844;53.360;9.738;2023-06-22T05:06:59;5.95;;;3.63;;
7605;SDS011;3844;53.360;9.738;2023-06-22T05:09:00;7.30;;;4.05;;
7605;SDS011;3844;53.360;9.738;2023-06-22T05:11:02;5.20;;;3.55;;
7605;SDS011;3844;53.360;9.738;2023-06-22T05:13:03;6.50;;;3.78;;
7605;SDS011;3844;53.360;9.738;2023-06-22T05:15:04;6.40;;;3.95;;
7605;SDS011;3844;53.360;9.738;2023-06-22T05:17:08;7.35;;;3.65;;
7605;SDS011;3844;53.360;9.738;2023-06-22T05:19:13;8.25;;;3.88;;
7605;SDS011;3844;53.360;9.738;2023-06-22T05:21:14;7.50;;;4.50;;
7605;SDS011;3844;53.360;9.738;2023-06-22T05:23:15;9.02;;;4.60;;
7605;SDS011;3844;53.360;9.738;2023-06-22T05:25:15;6.88;;;4.38;;
7605;SDS011;3844;53.360;9.738;2023-06-22T05:27:16;11.45;;;4.53;;
7605;SDS011;3844;53.360;9.738;2023-06-22T05:29:17;30.70;;;7.10;;
7605;SDS011;3844;53.360;9.738;2023-06-22T05:31:18;21.70;;;5.82;;
7605;SDS011;3844;53.360;9.738;2023-06-22T05:33:22;15.45;;;5.38;;
7605;SDS011;3844;53.360;9.738;2023-06-22T05:35:23;9.70;;;4.47;;
7605;SDS011;3844;53.360;9.738;2023-06-22T05:37:24;9.32;;;4.28;;
7605;SDS011;3844;53.360;9.738;2023-06-22T05:39:25;7.57;;;4.05;;
7605;SDS011;3844;53.360;9.738;2023-06-22T05:41:26;9.38;;;4.00;;
7605;SDS011;3844;53.360;9.738;2023-06-22T05:43:26;8.70;;;3.95;;
7605;SDS011;3844;53.360;9.738;2023-06-22T05:45:27;7.63;;;3.90;;
7605;SDS011;3844;53.360;9.738;2023-06-22T05:47:29;6.68;;;3.80;;
7605;SDS011;3844;53.360;9.738;2023-06-22T05:49:30;6.55;;;3.90;;
7605;SDS011;3844;53.360;9.738;2023-06-22T05:51:32;5.85;;;2.83;;
7605;SDS011;3844;53.360;9.738;2023-06-22T05:53:33;6.47;;;3.95;;
7605;SDS011;3844;53.360;9.738;2023-06-22T05:55:34;7.35;;;3.60;;
7605;SDS011;3844;53.360;9.738;2023-06-22T05:57:34;6.47;;;4.07;;
7605;SDS011;3844;53.360;9.738;2023-06-22T05:59:35;6.55;;;3.80;;
7605;SDS011;3844;53.360;9.738;2023-06-22T06:01:36;6.22;;;3.42;;
7605;SDS011;3844;53.360;9.738;2023-06-22T06:03:37;7.53;;;4.00;;
7605;SDS011;3844;53.360;9.738;2023-06-22T06:05:41;6.88;;;3.78;;
7605;SDS011;3844;53.360;9.738;2023-06-22T06:07:42;6.30;;;3.60;;
7605;SDS011;3844;53.360;9.738;2023-06-22T06:09:43;7.93;;;3.97;;
7605;SDS011;3844;53.360;9.738;2023-06-22T06:11:44;7.22;;;3.67;;
7605;SDS011;3844;53.360;9.738;2023-06-22T06:13:45;6.15;;;3.30;;
7605;SDS011;3844;53.360;9.738;2023-06-22T06:15:45;6.20;;;3.83;;
7605;SDS011;3844;53.360;9.738;2023-06-22T06:17:48;6.82;;;3.28;;
7605;SDS011;3844;53.360;9.738;2023-06-22T06:19:50;5.88;;;3.15;;
7605;SDS011;3844;53.360;9.738;2023-06-22T06:21:50;7.05;;;3.38;;
7605;SDS011;3844;53.360;9.738;2023-06-22T06:23:51;6.97;;;3.38;;
7605;SDS011;3844;53.360;9.738;2023-06-22T06:25:53;5.53;;;2.85;;
7605;SDS011;3844;53.360;9.738;2023-06-22T06:27:54;5.72;;;2.72;;
7605;SDS011;3844;53.360;9.738;2023-06-22T06:29:54;5.63;;;2.88;;
7605;SDS011;3844;53.360;9.738;2023-06-22T06:31:55;5.00;;;2.90;;
7605;SDS011;3844;53.360;9.738;2023-06-22T06:33:56;6.72;;;2.83;;
7605;SDS011;3844;53.360;9.738;2023-06-22T06:35:57;5.10;;;2.70;;
7605;SDS011;3844;53.360;9.738;2023-06-22T06:37:58;5.55;;;2.50;;
7605;SDS011;3844;53.360;9.738;2023-06-22T06:39:59;8.48;;;3.05;;
7605;SDS011;3844;53.360;9.738;2023-06-22T06:42:00;4.43;;;2.30;;
7605;SDS011;3844;53.360;9.738;2023-06-22T06:44:00;5.30;;;2.30;;
7605;SDS011;3844;53.360;9.738;2023-06-22T06:46:01;6.28;;;2.65;;
7605;SDS011;3844;53.360;9.738;2023-06-22T06:48:03;6.15;;;2.75;;
7605;SDS011;3844;53.360;9.738;2023-06-22T06:50:04;4.57;;;2.25;;
7605;SDS011;3844;53.360;9.738;2023-06-22T06:52:06;7.13;;;2.90;;
7605;SDS011;3844;53.360;9.738;2023-06-22T06:54:06;4.97;;;2.45;;
7605;SDS011;3844;53.360;9.738;2023-06-22T06:56:07;6.57;;;2.50;;
7605;SDS011;3844;53.360;9.738;2023-06-22T07:00:13;5.28;;;2.30;;
7605;SDS011;3844;53.360;9.738;2023-06-22T07:02:15;5.03;;;2.70;;
7605;SDS011;3844;53.360;9.738;2023-06-22T07:04:16;9.93;;;2.88;;
7605;SDS011;3844;53.360;9.738;2023-06-22T07:06:16;6.05;;;2.40;;
7605;SDS011;3844;53.360;9.738;2023-06-22T07:08:17;5.00;;;2.25;;
7605;SDS011;3844;53.360;9.738;2023-06-22T07:10:18;4.78;;;2.53;;
7605;SDS011;3844;53.360;9.738;2023-06-22T07:12:19;5.97;;;2.70;;
7605;SDS011;3844;53.360;9.738;2023-06-22T07:14:21;5.85;;;2.75;;
7605;SDS011;3844;53.360;9.738;2023-06-22T07:16:21;5.20;;;2.50;;
7605;SDS011;3844;53.360;9.738;2023-06-22T07:18:23;4.38;;;2.20;;
7605;SDS011;3844;53.360;9.738;2023-06-22T07:20:24;10.38;;;2.40;;
7605;SDS011;3844;53.360;9.738;2023-06-22T07:22:25;4.10;;;2.38;;
7605;SDS011;3844;53.360;9.738;2023-06-22T07:24:26;5.20;;;2.20;;
7605;SDS011;3844;53.360;9.738;2023-06-22T07:26:27;6.30;;;2.30;;
7605;SDS011;3844;53.360;9.738;2023-06-22T07:28:28;5.28;;;2.30;;
7605;SDS011;3844;53.360;9.738;2023-06-22T07:30:31;4.20;;;2.00;;
7605;SDS011;3844;53.360;9.738;2023-06-22T07:32:32;4.80;;;2.22;;
7605;SDS011;3844;53.360;9.738;2023-06-22T07:34:33;6.20;;;2.60;;
7605;SDS011;3844;53.360;9.738;2023-06-22T07:36:34;5.47;;;2.33;;
7605;SDS011;3844;53.360;9.738;2023-06-22T07:38:35;5.88;;;2.60;;
7605;SDS011;3844;53.360;9.738;2023-06-22T07:40:36;4.43;;;2.20;;
7605;SDS011;3844;53.360;9.738;2023-06-22T07:42:37;6.00;;;2.65;;
7605;SDS011;3844;53.360;9.738;2023-06-22T07:44:38;5.13;;;2.38;;
7605;SDS011;3844;53.360;9.738;2023-06-22T07:46:39;4.78;;;2.35;;
7605;SDS011;3844;53.360;9.738;2023-06-22T07:48:40;7.10;;;2.70;;
7605;SDS011;3844;53.360;9.738;2023-06-22T07:50:42;4.45;;;2.20;;
7605;SDS011;3844;53.360;9.738;2023-06-22T07:52:42;5.45;;;2.30;;
7605;SDS011;3844;53.360;9.738;2023-06-22T07:54:43;5.43;;;2.35;;
7605;SDS011;3844;53.360;9.738;2023-06-22T07:56:44;5.18;;;2.38;;
7605;SDS011;3844;53.360;9.738;2023-06-22T07:58:47;5.45;;;2.80;;
7605;SDS011;3844;53.360;9.738;2023-06-22T08:00:47;5.18;;;2.63;;
7605;SDS011;3844;53.360;9.738;2023-06-22T08:02:49;6.07;;;2.60;;
7605;SDS011;3844;53.360;9.738;2023-06-22T08:04:50;6.32;;;2.85;;
7605;SDS011;3844;53.360;9.738;2023-06-22T08:06:50;5.22;;;2.40;;
7605;SDS011;3844;53.360;9.738;2023-06-22T08:08:51;4.53;;;2.28;;
7605;SDS011;3844;53.360;9.738;2023-06-22T08:10:54;4.70;;;2.58;;
7605;SDS011;3844;53.360;9.738;2023-06-22T08:12:55;5.70;;;2.10;;
7605;SDS011;3844;53.360;9.738;2023-06-22T08:14:56;4.32;;;2.38;;
7605;SDS011;3844;53.360;9.738;2023-06-22T08:16:56;5.28;;;2.90;;
7605;SDS011;3844;53.360;9.738;2023-06-22T08:18:57;6.45;;;2.50;;
7605;SDS011;3844;53.360;9.738;2023-06-22T08:20:58;4.88;;;1.98;;
7605;SDS011;3844;53.360;9.738;2023-06-22T08:22:59;3.80;;;2.13;;
7605;SDS011;3844;53.360;9.738;2023-06-22T08:25:05;4.18;;;2.03;;
7605;SDS011;3844;53.360;9.738;2023-06-22T08:27:07;4.30;;;1.70;;
7605;SDS011;3844;53.360;9.738;2023-06-22T08:29:11;5.40;;;2.22;;
7605;SDS011;3844;53.360;9.738;2023-06-22T08:31:11;5.35;;;2.38;;
7605;SDS011;3844;53.360;9.738;2023-06-22T08:33:14;5.22;;;2.40;;
7605;SDS011;3844;53.360;9.738;2023-06-22T08:35:14;4.95;;;2.10;;
7605;SDS011;3844;53.360;9.738;2023-06-22T08:37:15;4.25;;;2.03;;
7605;SDS011;3844;53.360;9.738;2023-06-22T08:39:16;5.07;;;2.28;;
7605;SDS011;3844;53.360;9.738;2023-06-22T08:41:17;5.18;;;2.10;;
7605;SDS011;3844;53.360;9.738;2023-06-22T08:43:18;5.10;;;2.00;;
7605;SDS011;3844;53.360;9.738;2023-06-22T08:45:19;4.07;;;2.15;;
7605;SDS011;3844;53.360;9.738;2023-06-22T08:47:20;4.50;;;2.08;;
7605;SDS011;3844;53.360;9.738;2023-06-22T08:49:21;5.57;;;2.50;;
7605;SDS011;3844;53.360;9.738;2023-06-22T08:51:22;4.97;;;2.10;;
7605;SDS011;3844;53.360;9.738;2023-06-22T08:53:23;4.47;;;2.10;;
7605;SDS011;3844;53.360;9.738;2023-06-22T08:55:24;5.00;;;2.28;;
7605;SDS011;3844;53.360;9.738;2023-06-22T08:57:25;4.85;;;2.70;;
7605;SDS011;3844;53.360;9.738;2023-06-22T08:59:25;4.60;;;2.40;;
7605;SDS011;3844;53.360;9.738;2023-06-22T09:01:26;5.47;;;2.72;;
7605;SDS011;3844;53.360;9.738;2023-06-22T09:03:27;5.20;;;2.00;;
7605;SDS011;3844;53.360;9.738;2023-06-22T09:05:28;5.32;;;2.05;;
7605;SDS011;3844;53.360;9.738;2023-06-22T09:07:29;4.63;;;2.22;;
7605;SDS011;3844;53.360;9.738;2023-06-22T09:09:30;5.03;;;2.50;;
7605;SDS011;3844;53.360;9.738;2023-06-22T09:11:31;4.95;;;1.95;;
7605;SDS011;3844;53.360;9.738;2023-06-22T09:13:32;4.85;;;2.58;;
7605;SDS011;3844;53.360;9.738;2023-06-22T09:15:33;5.15;;;2.50;;
7605;SDS011;3844;53.360;9.738;2023-06-22T09:17:34;4.27;;;2.00;;
7605;SDS011;3844;53.360;9.738;2023-06-22T09:19:35;4.40;;;3.03;;
7605;SDS011;3844;53.360;9.738;2023-06-22T09:21:36;5.05;;;2.90;;
7605;SDS011;3844;53.360;9.738;2023-06-22T09:23:37;5.32;;;2.40;;
7605;SDS011;3844;53.360;9.738;2023-06-22T09:25:38;6.15;;;2.20;;
7605;SDS011;3844;53.360;9.738;2023-06-22T09:27:40;4.93;;;2.25;;
7605;SDS011;3844;53.360;9.738;2023-06-22T09:29:41;5.68;;;2.55;;
7605;SDS011;3844;53.360;9.738;2023-06-22T09:31:42;5.30;;;2.60;;
7605;SDS011;3844;53.360;9.738;2023-06-22T09:33:43;4.80;;;2.30;;
7605;SDS011;3844;53.360;9.738;2023-06-22T09:35:44;4.50;;;2.50;;
7605;SDS011;3844;53.360;9.738;2023-06-22T09:37:45;5.85;;;2.17;;
7605;SDS011;3844;53.360;9.738;2023-06-22T09:39:46;5.43;;;2.50;;
7605;SDS011;3844;53.360;9.738;2023-06-22T09:41:47;4.97;;;2.30;;
7605;SDS011;3844;53.360;9.738;2023-06-22T09:43:47;5.72;;;2.17;;
7605;SDS011;3844;53.360;9.738;2023-06-22T09:45:48;3.65;;;2.08;;
7605;SDS011;3844;53.360;9.738;2023-06-22T09:47:49;5.22;;;2.58;;
7605;SDS011;3844;53.360;9.738;2023-06-22T09:49:50;5.15;;;2.35;;
7605;SDS011;3844;53.360;9.738;2023-06-22T09:51:51;4.55;;;2.60;;
7605;SDS011;3844;53.360;9.738;2023-06-22T09:53:52;5.93;;;2.30;;
7605;SDS011;3844;53.360;9.738;2023-06-22T09:55:56;5.10;;;2.53;;
7605;SDS011;3844;53.360;9.738;2023-06-22T09:57:57;4.70;;;2.63;;
7605;SDS011;3844;53.360;9.738;2023-06-22T09:59:57;7.45;;;3.40;;
7605;SDS011;3844;53.360;9.738;2023-06-22T10:01:58;5.43;;;2.88;;
7605;SDS011;3844;53.360;9.738;2023-06-22T10:03:59;6.15;;;3.38;;
7605;SDS011;3844;53.360;9.738;2023-06-22T10:06:00;5.85;;;2.60;;
7605;SDS011;3844;53.360;9.738;2023-06-22T10:08:00;4.20;;;2.42;;
7605;SDS011;3844;53.360;9.738;2023-06-22T10:10:01;3.85;;;2.20;;
7605;SDS011;3844;53.360;9.738;2023-06-22T10:12:02;5.18;;;3.13;;
7605;SDS011;3844;53.360;9.738;2023-06-22T10:14:03;4.25;;;2.50;;
7605;SDS011;3844;53.360;9.738;2023-06-22T10:16:04;4.57;;;2.08;;
7605;SDS011;3844;53.360;9.738;2023-06-22T10:18:05;5.03;;;2.30;;
7605;SDS011;3844;53.360;9.738;2023-06-22T10:20:06;6.07;;;2.80;;
7605;SDS011;3844;53.360;9.738;2023-06-22T10:22:13;6.97;;;3.17;;
7605;SDS011;3844;53.360;9.738;2023-06-22T10:24:14;4.55;;;2.50;;
7605;SDS011;3844;53.360;9.738;2023-06-22T10:26:14;4.28;;;2.47;;
7605;SDS011;3844;53.360;9.738;2023-06-22T10:28:15;4.90;;;2.42;;
7605;SDS011;3844;53.360;9.738;2023-06-22T10:30:16;4.70;;;2.28;;
7605;SDS011;3844;53.360;9.738;2023-06-22T10:32:18;4.85;;;2.72;;
7605;SDS011;3844;53.360;9.738;2023-06-22T10:34:19;5.00;;;2.28;;
7605;SDS011;3844;53.360;9.738;2023-06-22T10:36:20;5.78;;;2.45;;
7605;SDS011;3844;53.360;9.738;2023-06-22T10:38:21;6.35;;;2.83;;
7605;SDS011;3844;53.360;9.738;2023-06-22T10:40:22;7.63;;;2.50;;
7605;SDS011;3844;53.360;9.738;2023-06-22T10:42:23;4.65;;;2.55;;
7605;SDS011;3844;53.360;9.738;2023-06-22T10:44:23;6.22;;;2.90;;
7605;SDS011;3844;53.360;9.738;2023-06-22T10:46:24;6.43;;;3.10;;
7605;SDS011;3844;53.360;9.738;2023-06-22T10:48:26;5.50;;;3.05;;
7605;SDS011;3844;53.360;9.738;2023-06-22T10:50:26;7.97;;;3.33;;
7605;SDS011;3844;53.360;9.738;2023-06-22T10:52:27;6.43;;;2.33;;
7605;SDS011;3844;53.360;9.738;2023-06-22T10:54:28;5.97;;;2.53;;
7605;SDS011;3844;53.360;9.738;2023-06-22T10:56:29;5.47;;;3.00;;
7605;SDS011;3844;53.360;9.738;2023-06-22T10:58:30;6.32;;;3.13;;
7605;SDS011;3844;53.360;9.738;2023-06-22T11:00:30;4.65;;;2.90;;
7605;SDS011;3844;53.360;9.738;2023-06-22T11:02:31;5.00;;;2.97;;
7605;SDS011;3844;53.360;9.738;2023-06-22T11:04:32;4.03;;;2.35;;
7605;SDS011;3844;53.360;9.738;2023-06-22T11:06:33;5.68;;;3.55;;
7605;SDS011;3844;53.360;9.738;2023-06-22T11:08:34;6.28;;;3.05;;
7605;SDS011;3844;53.360;9.738;2023-06-22T11:10:35;4.68;;;2.72;;
7605;SDS011;3844;53.360;9.738;2023-06-22T11:12:35;6.13;;;2.83;;
7605;SDS011;3844;53.360;9.738;2023-06-22T11:14:36;4.80;;;3.08;;
7605;SDS011;3844;53.360;9.738;2023-06-22T11:16:37;8.20;;;2.72;;
7605;SDS011;3844;53.360;9.738;2023-06-22T11:18:37;5.63;;;3.78;;
7605;SDS011;3844;53.360;9.738;2023-06-22T11:20:38;5.38;;;4.00;;
7605;SDS011;3844;53.360;9.738;2023-06-22T11:22:40;5.85;;;3.45;;
7605;SDS011;3844;53.360;9.738;2023-06-22T11:24:41;5.50;;;3.17;;
7605;SDS011;3844;53.360;9.738;2023-06-22T11:26:42;4.88;;;3.25;;
7605;SDS011;3844;53.360;9.738;2023-06-22T11:28:43;5.78;;;3.47;;
7605;SDS011;3844;53.360;9.738;2023-06-22T11:30:44;5.82;;;3.00;;
7605;SDS011;3844;53.360;9.738;2023-06-22T11:32:45;5.55;;;3.40;;
7605;SDS011;3844;53.360;9.738;2023-06-22T11:34:46;4.80;;;3.05;;
7605;SDS011;3844;53.360;9.738;2023-06-22T11:36:47;4.47;;;2.70;;
7605;SDS011;3844;53.360;9.738;2023-06-22T11:38:48;5.03;;;3.08;;
7605;SDS011;3844;53.360;9.738;2023-06-22T11:40:49;5.60;;;3.17;;
7605;SDS011;3844;53.360;9.738;2023-06-22T11:42:49;6.25;;;3.15;;
7605;SDS011;3844;53.360;9.738;2023-06-22T11:44:50;6.38;;;3.50;;
7605;SDS011;3844;53.360;9.738;2023-06-22T11:46:51;8.48;;;3.42;;
7605;SDS011;3844;53.360;9.738;2023-06-22T11:48:52;5.30;;;3.47;;
7605;SDS011;3844;53.360;9.738;2023-06-22T11:50:53;4.75;;;3.13;;
7605;SDS011;3844;53.360;9.738;2023-06-22T11:52:54;7.40;;;2.90;;
7605;SDS011;3844;53.360;9.738;2023-06-22T11:54:55;6.88;;;3.00;;
7605;SDS011;3844;53.360;9.738;2023-06-22T11:56:56;6.20;;;3.22;;
7605;SDS011;3844;53.360;9.738;2023-06-22T11:58:56;5.18;;;2.63;;
7605;SDS011;3844;53.360;9.738;2023-06-22T12:00:58;5.03;;;3.20;;
7605;SDS011;3844;53.360;9.738;2023-06-22T12:02:59;5.50;;;3.28;;
7605;SDS011;3844;53.360;9.738;2023-06-22T12:04:59;5.28;;;2.90;;
7605;SDS011;3844;53.360;9.738;2023-06-22T12:07:00;6.70;;;3.13;;
7605;SDS011;3844;53.360;9.738;2023-06-22T12:09:02;6.07;;;3.30;;
7605;SDS011;3844;53.360;9.738;2023-06-22T12:11:04;4.75;;;2.95;;
7605;SDS011;3844;53.360;9.738;2023-06-22T12:13:05;5.22;;;3.42;;
7605;SDS011;3844;53.360;9.738;2023-06-22T12:15:06;5.95;;;3.25;;
7605;SDS011;3844;53.360;9.738;2023-06-22T12:17:07;6.25;;;2.90;;
7605;SDS011;3844;53.360;9.738;2023-06-22T12:19:08;6.30;;;3.00;;
7605;SDS011;3844;53.360;9.738;2023-06-22T12:21:08;5.57;;;3.15;;
7605;SDS011;3844;53.360;9.738;2023-06-22T12:23:09;6.28;;;3.65;;
7605;SDS011;3844;53.360;9.738;2023-06-22T12:25:10;4.63;;;3.00;;
7605;SDS011;3844;53.360;9.738;2023-06-22T12:27:11;5.00;;;3.03;;
7605;SDS011;3844;53.360;9.738;2023-06-22T12:29:11;5.68;;;2.97;;
7605;SDS011;3844;53.360;9.738;2023-06-22T12:31:12;5.22;;;3.30;;
7605;SDS011;3844;53.360;9.738;2023-06-22T12:33:14;5.60;;;3.03;;
7605;SDS011;3844;53.360;9.738;2023-06-22T12:35:15;5.30;;;3.17;;
7605;SDS011;3844;53.360;9.738;2023-06-22T12:37:15;4.75;;;3.50;;
7605;SDS011;3844;53.360;9.738;2023-06-22T12:39:16;6.25;;;3.67;;
7605;SDS011;3844;53.360;9.738;2023-06-22T12:41:17;5.88;;;3.63;;
7605;SDS011;3844;53.360;9.738;2023-06-22T12:43:18;5.38;;;3.50;;
7605;SDS011;3844;53.360;9.738;2023-06-22T12:45:19;6.38;;;3.60;;
7605;SDS011;3844;53.360;9.738;2023-06-22T12:47:21;5.45;;;3.35;;